sensor_id;sensor_type;location;lat;lon;timestamp;pressure;altitude;pressure_sealevel;temperature;humidity
5062;BME280;2351;50.812;12.872;2023-11-19T00:00:32;97768.97;;;2.57;100.00
5062;BME280;2351;50.812;12.872;2023-11-19T00:03:04;97768.97;;;2.57;100.00
5062;BME280;2351;50.812;12.872;2023-11-19T00:05:36;97764.50;;;2.59;100.00
5062;BME280;2351;50.812;12.872;2023-11-19T00:08:07;97767.88;;;2.61;100.00
5062;BME280;2351;50.812;12.872;2023-11-19T00:10:39;97756.50;;;2.62;100.00
5062;BME280;2351;50.812;12.872;2023-11-19T00:13:11;97756.31;;;2.65;100.00
5062;BME280;2351;50.812;12.872;2023-11-19T00:15:44;97753.53;;;2.68;100.00
5062;BME280;2351;50.812;12.872;2023-11-19T00:18:17;97764.00;;;2.68;100.00
5062;BME280;2351;50.812;12.872;2023-11-19T00:20:49;97750.75;;;2.71;100.00
5062;BME280;2351;50.812;12.872;2023-11-19T00:23:21;97737.59;;;2.73;100.00
5062;BME280;2351;50.812;12.872;2023-11-19T00:25:53;97742.66;;;2.76;100.00
5062;BME280;2351;50.812;12.872;2023-11-19T00:28:25;97732.94;;;2.78;100.00
5062;BME280;2351;50.812;12.872;2023-11-19T00:30:59;97732.66;;;2.83;100.00
5062;BME280;2351;50.812;12.872;2023-11-19T00:33:30;97731.38;;;2.90;100.00
5062;BME280;2351;50.812;12.872;2023-11-19T00:36:03;97737.84;;;2.99;100.00
5062;BME280;2351;50.812;12.872;2023-11-19T00:38:34;97720.03;;;3.06;100.00
5062;BME280;2351;50.812;12.872;2023-11-19T00:41:07;97730.13;;;3.12;100.00
5062;BME280;2351;50.812;12.872;2023-11-19T00:43:38;97714.09;;;3.18;100.00
5062;BME280;2351;50.812;12.872;2023-11-19T00:46:11;97695.66;;;3.20;100.00
5062;BME280;2351;50.812;12.872;2023-11-19T00:48:43;97699.69;;;3.25;100.00
5062;BME280;2351;50.812;12.872;2023-11-19T00:51:17;97690.91;;;3.26;100.00
5062;BME280;2351;50.812;12.872;2023-11-19T00:53:49;97687.34;;;3.27;100.00
5062;BME280;2351;50.812;12.872;2023-11-19T00:56:20;97686.41;;;3.28;100.00
5062;BME280;2351;50.812;12.872;2023-11-19T00:58:53;97685.50;;;3.29;100.00
5062;BME280;2351;50.812;12.872;2023-11-19T01:01:26;97664.38;;;3.33;100.00
5062;BME280;2351;50.812;12.872;2023-11-19T01:03:58;97667.75;;;3.35;100.00
5062;BME280;2351;50.812;12.872;2023-11-19T01:06:31;97657.09;;;3.38;100.00
5062;BME280;2351;50.812;12.872;2023-11-19T01:09:03;97652.81;;;3.37;100.00
5062;BME280;2351;50.812;12.872;2023-11-19T01:11:34;97656.25;;;3.37;100.00
5062;BME280;2351;50.812;12.872;2023-11-19T01:14:06;97656.25;;;3.37;100.00
5062;BME280;2351;50.812;12.872;2023-11-19T01:16:39;97656.25;;;3.37;100.00
5062;BME280;2351;50.812;12.872;2023-11-19T01:19:11;97651.69;;;3.41;100.00
5062;BME280;2351;50.812;12.872;2023-11-19T01:21:43;97637.75;;;3.40;100.00
5062;BME280;2351;50.812;12.872;2023-11-19T01:24:15;97643.09;;;3.39;100.00
5062;BME280;2351;50.812;12.872;2023-11-19T01:26:47;97643.16;;;3.37;100.00
5062;BME280;2351;50.812;12.872;2023-11-19T01:29:19;97635.41;;;3.36;100.00
5062;BME280;2351;50.812;12.872;2023-11-19T01:31:52;97625.03;;;3.34;100.00
5062;BME280;2351;50.812;12.872;2023-11-19T01:34:24;97615.41;;;3.35;100.00
5062;BME280;2351;50.812;12.872;2023-11-19T01:36:56;97608.50;;;3.34;100.00
5062;BME280;2351;50.812;12.872;2023-11-19T01:39:27;97612.06;;;3.33;100.00
5062;BME280;2351;50.812;12.872;2023-11-19T01:41:59;97592.81;;;3.34;100.00
5062;BME280;2351;50.812;12.872;2023-11-19T01:44:31;97591.88;;;3.35;100.00
5062;BME280;2351;50.812;12.872;2023-11-19T01:47:06;97578.81;;;3.35;100.00
5062;BME280;2351;50.812;12.872;2023-11-19T01:49:38;97580.47;;;3.36;100.00
5062;BME280;2351;50.812;12.872;2023-11-19T01:52:09;97585.59;;;3.37;100.00
5062;BME280;2351;50.812;12.872;2023-11-19T01:54:41;97579.53;;;3.37;100.00
5062;BME280;2351;50.812;12.872;2023-11-19T01:57:14;97564.41;;;3.42;100.00
5062;BME280;2351;50.812;12.872;2023-11-19T01:59:45;97557.38;;;3.42;100.00
5062;BME280;2351;50.812;12.872;2023-11-19T02:02:19;97552.16;;;3.42;100.00
5062;BME280;2351;50.812;12.872;2023-11-19T02:04:51;97550.34;;;3.43;100.00
5062;BME280;2351;50.812;12.872;2023-11-19T02:07:24;97532.78;;;3.45;100.00
5062;BME280;2351;50.812;12.872;2023-11-19T02:09:56;97528.50;;;3.44;100.00
5062;BME280;2351;50.812;12.872;2023-11-19T02:12:29;97516.16;;;3.46;100.00
5062;BME280;2351;50.812;12.872;2023-11-19T02:15:04;97517.84;;;3.47;100.00
5062;BME280;2351;50.812;12.872;2023-11-19T02:17:37;97498.56;;;3.48;100.00
5062;BME280;2351;50.812;12.872;2023-11-19T02:20:10;97497.63;;;3.49;100.00
5062;BME280;2351;50.812;12.872;2023-11-19T02:22:43;97496.63;;;3.52;100.00
5062;BME280;2351;50.812;12.872;2023-11-19T02:25:21;97492.22;;;3.52;100.00
5062;BME280;2351;50.812;12.872;2023-11-19T02:27:59;97492.84;;;3.56;100.00
5062;BME280;2351;50.812;12.872;2023-11-19T02:30:32;97487.63;;;3.56;100.00
5062;BME280;2351;50.812;12.872;2023-11-19T02:33:03;97470.88;;;3.58;100.00
5062;BME280;2351;50.812;12.872;2023-11-19T02:35:35;97467.34;;;3.59;100.00
5062;BME280;2351;50.812;12.872;2023-11-19T02:38:07;97462.84;;;3.61;100.00
5062;BME280;2351;50.812;12.872;2023-11-19T02:40:39;97468.81;;;3.64;100.00
5062;BME280;2351;50.812;12.872;2023-11-19T02:43:12;97473.09;;;3.65;100.00
5062;BME280;2351;50.812;12.872;2023-11-19T02:45:44;97456.44;;;3.66;100.00
5062;BME280;2351;50.812;12.872;2023-11-19T02:48:16;97456.38;;;3.67;100.00
5062;BME280;2351;50.812;12.872;2023-11-19T02:50:48;97447.56;;;3.68;100.00
5062;BME280;2351;50.812;12.872;2023-11-19T02:53:20;97441.41;;;3.69;100.00
5062;BME280;2351;50.812;12.872;2023-11-19T02:55:52;97430.81;;;3.71;100.00
5062;BME280;2351;50.812;12.872;2023-11-19T02:58:32;97428.19;;;3.71;100.00
5062;BME280;2351;50.812;12.872;2023-11-19T03:01:04;97424.44;;;3.75;100.00
5062;BME280;2351;50.812;12.872;2023-11-19T03:03:43;97429.66;;;3.75;100.00
5062;BME280;2351;50.812;12.872;2023-11-19T03:06:19;97409.47;;;3.77;100.00
5062;BME280;2351;50.812;12.872;2023-11-19T03:08:52;97409.06;;;3.83;100.00
5062;BME280;2351;50.812;12.872;2023-11-19T03:11:23;97397.75;;;3.83;100.00
5062;BME280;2351;50.812;12.872;2023-11-19T03:13:57;97389.81;;;3.84;100.00
5062;BME280;2351;50.812;12.872;2023-11-19T03:16:29;97395.03;;;3.84;100.00
5062;BME280;2351;50.812;12.872;2023-11-19T03:19:00;97395.53;;;3.89;100.00
5062;BME280;2351;50.812;12.872;2023-11-19T03:21:32;97373.66;;;3.90;100.00
5062;BME280;2351;50.812;12.872;2023-11-19T03:24:05;97359.63;;;3.91;100.00
5062;BME280;2351;50.812;12.872;2023-11-19T03:26:37;97355.78;;;3.97;100.00
5062;BME280;2351;50.812;12.872;2023-11-19T03:29:11;97345.91;;;4.01;100.00
5062;BME280;2351;50.812;12.872;2023-11-19T03:31:42;97340.25;;;4.07;100.00
5062;BME280;2351;50.812;12.872;2023-11-19T03:34:14;97334.78;;;4.10;100.00
5062;BME280;2351;50.812;12.872;2023-11-19T03:36:47;97326.63;;;4.15;100.00
5062;BME280;2351;50.812;12.872;2023-11-19T03:39:19;97321.88;;;4.20;100.00
5062;BME280;2351;50.812;12.872;2023-11-19T03:41:51;97318.97;;;4.25;100.00
5062;BME280;2351;50.812;12.872;2023-11-19T03:44:25;97328.28;;;4.29;100.00
5062;BME280;2351;50.812;12.872;2023-11-19T03:46:57;97334.97;;;4.33;100.00
5062;BME280;2351;50.812;12.872;2023-11-19T03:49:29;97327.00;;;4.34;100.00
5062;BME280;2351;50.812;12.872;2023-11-19T03:52:00;97319.03;;;4.36;100.00
5062;BME280;2351;50.812;12.872;2023-11-19T03:54:32;97315.47;;;4.37;100.00
5062;BME280;2351;50.812;12.872;2023-11-19T03:57:04;97310.94;;;4.39;100.00
5062;BME280;2351;50.812;12.872;2023-11-19T03:59:37;97304.56;;;4.43;100.00
5062;BME280;2351;50.812;12.872;2023-11-19T04:02:09;97297.28;;;4.47;100.00
5062;BME280;2351;50.812;12.872;2023-11-19T04:04:40;97301.38;;;4.51;100.00
5062;BME280;2351;50.812;12.872;2023-11-19T04:07:12;97309.13;;;4.52;100.00
5062;BME280;2351;50.812;12.872;2023-11-19T04:09:44;97310.09;;;4.51;100.00
5062;BME280;2351;50.812;12.872;2023-11-19T04:12:17;97320.34;;;4.55;100.00
5062;BME280;2351;50.812;12.872;2023-11-19T04:14:50;97303.66;;;4.56;100.00
5062;BME280;2351;50.812;12.872;2023-11-19T04:17:21;97293.09;;;4.57;100.00
5062;BME280;2351;50.812;12.872;2023-11-19T04:19:53;97304.16;;;4.61;100.00
5062;BME280;2351;50.812;12.872;2023-11-19T04:22:26;97299.66;;;4.63;100.00
5062;BME280;2351;50.812;12.872;2023-11-19T04:24:57;97293.34;;;4.65;100.00
5062;BME280;2351;50.812;12.872;2023-11-19T04:27:29;97286.22;;;4.67;100.00
5062;BME280;2351;50.812;12.872;2023-11-19T04:30:03;97289.78;;;4.66;100.00
5062;BME280;2351;50.812;12.872;2023-11-19T04:32:35;97280.25;;;4.65;100.00
5062;BME280;2351;50.812;12.872;2023-11-19T04:35:08;97279.94;;;4.70;100.00
5062;BME280;2351;50.812;12.872;2023-11-19T04:37:39;97268.59;;;4.70;100.00
5062;BME280;2351;50.812;12.872;2023-11-19T04:40:13;97262.53;;;4.69;100.00
5062;BME280;2351;50.812;12.872;2023-11-19T04:42:45;97262.63;;;4.67;100.00
5062;BME280;2351;50.812;12.872;2023-11-19T04:45:18;97259.19;;;4.67;100.00
5062;BME280;2351;50.812;12.872;2023-11-19T04:47:50;97263.56;;;4.66;100.00
5062;BME280;2351;50.812;12.872;2023-11-19T04:50:22;97260.13;;;4.66;100.00
5062;BME280;2351;50.812;12.872;2023-11-19T04:52:53;97251.09;;;4.70;100.00
5062;BME280;2351;50.812;12.872;2023-11-19T04:55:26;97249.50;;;4.67;100.00
5062;BME280;2351;50.812;12.872;2023-11-19T04:57:57;97257.28;;;4.69;100.00
5062;BME280;2351;50.812;12.872;2023-11-19T05:00:30;97246.78;;;4.69;100.00
5062;BME280;2351;50.812;12.872;2023-11-19T05:03:01;97254.53;;;4.71;100.00
5062;BME280;2351;50.812;12.872;2023-11-19T05:05:33;97251.69;;;4.74;100.00
5062;BME280;2351;50.812;12.872;2023-11-19T05:08:05;97244.44;;;4.77;100.00
5062;BME280;2351;50.812;12.872;2023-11-19T05:10:37;97247.91;;;4.78;100.00
5062;BME280;2351;50.812;12.872;2023-11-19T05:13:09;97246.00;;;4.80;100.00
5062;BME280;2351;50.812;12.872;2023-11-19T05:15:42;97236.97;;;4.84;100.00
5062;BME280;2351;50.812;12.872;2023-11-19T05:18:13;97235.16;;;4.85;100.00
5062;BME280;2351;50.812;12.872;2023-11-19T05:20:45;97238.38;;;4.88;100.00
5062;BME280;2351;50.812;12.872;2023-11-19T05:23:17;97239.03;;;4.92;100.00
5062;BME280;2351;50.812;12.872;2023-11-19T05:25:48;97222.94;;;4.96;100.00
5062;BME280;2351;50.812;12.872;2023-11-19T05:28:20;97219.13;;;5.01;100.00
5062;BME280;2351;50.812;12.872;2023-11-19T05:30:53;97231.16;;;5.03;100.00
5062;BME280;2351;50.812;12.872;2023-11-19T05:33:25;97212.34;;;5.09;100.00
5062;BME280;2351;50.812;12.872;2023-11-19T05:35:57;97192.81;;;5.13;100.00
5062;BME280;2351;50.812;12.872;2023-11-19T05:38:29;97193.41;;;5.17;100.00
5062;BME280;2351;50.812;12.872;2023-11-19T05:41:00;97194.84;;;5.21;100.00
5062;BME280;2351;50.812;12.872;2023-11-19T05:43:32;97211.31;;;5.23;100.00
5062;BME280;2351;50.812;12.872;2023-11-19T05:46:05;97208.47;;;5.26;100.00
5062;BME280;2351;50.812;12.872;2023-11-19T05:48:37;97215.97;;;5.31;100.00
5062;BME280;2351;50.812;12.872;2023-11-19T05:51:09;97201.69;;;5.35;100.00
5062;BME280;2351;50.812;12.872;2023-11-19T05:53:40;97202.16;;;5.40;100.00
5062;BME280;2351;50.812;12.872;2023-11-19T05:56:12;97195.59;;;5.46;100.00
5062;BME280;2351;50.812;12.872;2023-11-19T05:58:46;97192.47;;;5.52;100.00
5062;BME280;2351;50.812;12.872;2023-11-19T06:01:20;97198.44;;;5.54;100.00
5062;BME280;2351;50.812;12.872;2023-11-19T06:03:52;97202.66;;;5.57;100.00
5062;BME280;2351;50.812;12.872;2023-11-19T06:06:25;97192.88;;;5.59;100.00
5062;BME280;2351;50.812;12.872;2023-11-19T06:08:56;97175.06;;;5.63;100.00
5062;BME280;2351;50.812;12.872;2023-11-19T06:11:28;97174.13;;;5.64;100.00
5062;BME280;2351;50.812;12.872;2023-11-19T06:14:00;97181.88;;;5.65;100.00
5062;BME280;2351;50.812;12.872;2023-11-19T06:16:33;97187.00;;;5.67;100.00
5062;BME280;2351;50.812;12.872;2023-11-19T06:19:04;97180.81;;;5.68;100.00
5062;BME280;2351;50.812;12.872;2023-11-19T06:21:36;97188.31;;;5.72;100.00
5062;BME280;2351;50.812;12.872;2023-11-19T06:24:08;97191.66;;;5.75;100.00
5062;BME280;2351;50.812;12.872;2023-11-19T06:26:40;97179.25;;;5.77;100.00
5062;BME280;2351;50.812;12.872;2023-11-19T06:29:12;97180.69;;;5.81;100.00
5062;BME280;2351;50.812;12.872;2023-11-19T06:31:50;97180.69;;;5.81;100.00
5062;BME280;2351;50.812;12.872;2023-11-19T06:34:21;97179.81;;;5.80;100.00
5062;BME280;2351;50.812;12.872;2023-11-19T06:36:53;97180.44;;;5.84;100.00
5062;BME280;2351;50.812;12.872;2023-11-19T06:39:25;97179.59;;;5.83;100.00
5062;BME280;2351;50.812;12.872;2023-11-19T06:41:57;97183.75;;;5.86;100.00
5062;BME280;2351;50.812;12.872;2023-11-19T06:44:28;97199.28;;;5.89;100.00
5062;BME280;2351;50.812;12.872;2023-11-19T06:47:02;97192.13;;;5.91;100.00
5062;BME280;2351;50.812;12.872;2023-11-19T06:49:33;97202.53;;;5.93;100.00
5062;BME280;2351;50.812;12.872;2023-11-19T06:52:05;97218.13;;;5.94;100.00
5062;BME280;2351;50.812;12.872;2023-11-19T06:54:38;97195.22;;;5.96;100.00
5062;BME280;2351;50.812;12.872;2023-11-19T06:57:10;97201.09;;;6.00;100.00
5062;BME280;2351;50.812;12.872;2023-11-19T06:59:42;97192.97;;;6.03;100.00
5062;BME280;2351;50.812;12.872;2023-11-19T07:02:15;97196.06;;;6.08;100.00
5062;BME280;2351;50.812;12.872;2023-11-19T07:04:47;97198.44;;;6.11;100.00
5062;BME280;2351;50.812;12.872;2023-11-19T07:07:19;97200.13;;;6.12;100.00
5062;BME280;2351;50.812;12.872;2023-11-19T07:09:51;97221.72;;;6.16;100.00
5062;BME280;2351;50.812;12.872;2023-11-19T07:12:22;97225.06;;;6.18;100.00
5062;BME280;2351;50.812;12.872;2023-11-19T07:14:54;97224.59;;;6.24;100.00
5062;BME280;2351;50.812;12.872;2023-11-19T07:17:28;97228.75;;;6.27;100.00
5062;BME280;2351;50.812;12.872;2023-11-19T07:19:59;97218.25;;;6.27;100.00
5062;BME280;2351;50.812;12.872;2023-11-19T07:22:31;97220.50;;;6.31;100.00
5062;BME280;2351;50.812;12.872;2023-11-19T07:25:03;97218.59;;;6.33;100.00
5062;BME280;2351;50.812;12.872;2023-11-19T07:27:35;97214.03;;;6.36;100.00
5062;BME280;2351;50.812;12.872;2023-11-19T07:30:07;97206.16;;;6.36;100.00
5062;BME280;2351;50.812;12.872;2023-11-19T07:32:40;97203.16;;;6.40;100.00
5062;BME280;2351;50.812;12.872;2023-11-19T07:35:13;97215.31;;;6.41;100.00
5062;BME280;2351;50.812;12.872;2023-11-19T07:37:45;97209.13;;;6.42;100.00
5062;BME280;2351;50.812;12.872;2023-11-19T07:40:18;97228.13;;;6.46;100.00
5062;BME280;2351;50.812;12.872;2023-11-19T07:42:50;97240.06;;;6.50;100.00
5062;BME280;2351;50.812;12.872;2023-11-19T07:45:22;97238.97;;;6.53;100.00
5062;BME280;2351;50.812;12.872;2023-11-19T07:47:55;97236.34;;;6.53;100.00
5062;BME280;2351;50.812;12.872;2023-11-19T07:50:26;97232.03;;;6.52;100.00
5062;BME280;2351;50.812;12.872;2023-11-19T07:52:58;97233.56;;;6.54;100.00
5062;BME280;2351;50.812;12.872;2023-11-19T07:55:30;97238.00;;;6.54;100.00
5062;BME280;2351;50.812;12.872;2023-11-19T07:58:02;97224.03;;;6.53;100.00
5062;BME280;2351;50.812;12.872;2023-11-19T08:00:34;97233.56;;;6.54;100.00
5062;BME280;2351;50.812;12.872;2023-11-19T08:03:07;97235.84;;;6.59;100.00
5062;BME280;2351;50.812;12.872;2023-11-19T08:05:38;97241.78;;;6.72;100.00
5062;BME280;2351;50.812;12.872;2023-11-19T08:08:10;97237.56;;;6.81;100.00
5062;BME280;2351;50.812;12.872;2023-11-19T08:10:43;97239.84;;;7.07;100.00
5062;BME280;2351;50.812;12.872;2023-11-19T08:13:15;97243.25;;;7.19;100.00
5062;BME280;2351;50.812;12.872;2023-11-19T08:15:46;97242.03;;;7.23;100.00
5062;BME280;2351;50.812;12.872;2023-11-19T08:18:19;97248.00;;;7.25;100.00
5062;BME280;2351;50.812;12.872;2023-11-19T08:20:51;97240.94;;;7.26;100.00
5062;BME280;2351;50.812;12.872;2023-11-19T08:23:24;97238.59;;;7.32;100.00
5062;BME280;2351;50.812;12.872;2023-11-19T08:25:56;97235.97;;;7.32;100.00
5062;BME280;2351;50.812;12.872;2023-11-19T08:28:27;97227.00;;;7.35;100.00
5062;BME280;2351;50.812;12.872;2023-11-19T08:30:59;97226.47;;;7.41;100.00
5062;BME280;2351;50.812;12.872;2023-11-19T08:33:32;97230.50;;;7.45;100.00
5062;BME280;2351;50.812;12.872;2023-11-19T08:36:06;97228.34;;;7.50;100.00
5062;BME280;2351;50.812;12.872;2023-11-19T08:38:38;97232.81;;;7.60;100.00
5062;BME280;2351;50.812;12.872;2023-11-19T08:41:10;97244.50;;;7.67;100.00
5062;BME280;2351;50.812;12.872;2023-11-19T08:43:41;97247.56;;;7.72;100.00
5062;BME280;2351;50.812;12.872;2023-11-19T08:46:13;97252.97;;;7.71;100.00
5062;BME280;2351;50.812;12.872;2023-11-19T08:48:46;97246.47;;;7.75;100.00
5062;BME280;2351;50.812;12.872;2023-11-19T08:51:18;97249.94;;;7.75;100.00
5062;BME280;2351;50.812;12.872;2023-11-19T08:53:49;97241.78;;;7.78;100.00
5062;BME280;2351;50.812;12.872;2023-11-19T08:56:21;97245.13;;;7.80;100.00
5062;BME280;2351;50.812;12.872;2023-11-19T08:58:53;97247.88;;;7.79;100.00
5062;BME280;2351;50.812;12.872;2023-11-19T09:01:24;97242.66;;;7.89;100.00
5062;BME280;2351;50.812;12.872;2023-11-19T09:03:57;97237.41;;;7.98;100.00
5062;BME280;2351;50.812;12.872;2023-11-19T09:06:29;97236.06;;;8.04;100.00
5062;BME280;2351;50.812;12.872;2023-11-19T09:09:01;97234.69;;;8.10;100.00
5062;BME280;2351;50.812;12.872;2023-11-19T09:11:33;97241.50;;;8.22;100.00
5062;BME280;2351;50.812;12.872;2023-11-19T09:14:05;97252.22;;;8.31;100.00
5062;BME280;2351;50.812;12.872;2023-11-19T09:16:36;97254.34;;;8.37;100.00
5062;BME280;2351;50.812;12.872;2023-11-19T09:19:10;97256.97;;;8.37;100.00
5062;BME280;2351;50.812;12.872;2023-11-19T09:21:41;97257.66;;;8.39;100.00
5062;BME280;2351;50.812;12.872;2023-11-19T09:24:13;97275.97;;;8.40;100.00
5062;BME280;2351;50.812;12.872;2023-11-19T09:26:45;97271.72;;;8.49;100.00
5062;BME280;2351;50.812;12.872;2023-11-19T09:29:16;97264.53;;;8.61;100.00
5062;BME280;2351;50.812;12.872;2023-11-19T09:31:48;97268.59;;;8.95;100.00
5062;BME280;2351;50.812;12.872;2023-11-19T09:34:21;97256.91;;;9.17;100.00
5062;BME280;2351;50.812;12.872;2023-11-19T09:36:53;97261.63;;;9.23;100.00
5062;BME280;2351;50.812;12.872;2023-11-19T09:39:25;97263.75;;;9.10;100.00
5062;BME280;2351;50.812;12.872;2023-11-19T09:41:56;97258.19;;;9.03;100.00
5062;BME280;2351;50.812;12.872;2023-11-19T09:44:28;97259.00;;;9.03;100.00
5062;BME280;2351;50.812;12.872;2023-11-19T09:47:00;97254.00;;;9.00;100.00
5062;BME280;2351;50.812;12.872;2023-11-19T09:49:35;97257.88;;;8.96;100.00
5062;BME280;2351;50.812;12.872;2023-11-19T09:52:08;97261.38;;;8.97;100.00
5062;BME280;2351;50.812;12.872;2023-11-19T09:54:39;97257.78;;;8.98;100.00
5062;BME280;2351;50.812;12.872;2023-11-19T09:57:13;97259.81;;;8.94;100.00
5062;BME280;2351;50.812;12.872;2023-11-19T09:59:48;97259.81;;;8.94;100.00
5062;BME280;2351;50.812;12.872;2023-11-19T10:02:20;97265.41;;;8.91;100.00
5062;BME280;2351;50.812;12.872;2023-11-19T10:04:54;97264.84;;;8.87;100.00
5062;BME280;2351;50.812;12.872;2023-11-19T10:07:26;97265.41;;;8.81;100.00
5062;BME280;2351;50.812;12.872;2023-11-19T10:09:58;97263.03;;;8.78;100.00
5062;BME280;2351;50.812;12.872;2023-11-19T10:12:30;97258.84;;;8.76;100.00
5062;BME280;2351;50.812;12.872;2023-11-19T10:15:04;97255.50;;;8.73;100.00
5062;BME280;2351;50.812;12.872;2023-11-19T10:17:38;97252.06;;;8.73;100.00
5062;BME280;2351;50.812;12.872;2023-11-19T10:20:11;97249.28;;;8.74;100.00
5062;BME280;2351;50.812;12.872;2023-11-19T10:22:43;97255.41;;;8.75;100.00
5062;BME280;2351;50.812;12.872;2023-11-19T10:25:23;97251.63;;;8.78;100.00
5062;BME280;2351;50.812;12.872;2023-11-19T10:27:56;97256.38;;;8.84;100.00
5062;BME280;2351;50.812;12.872;2023-11-19T10:30:28;97251.91;;;8.94;100.00
5062;BME280;2351;50.812;12.872;2023-11-19T10:33:04;97243.72;;;8.97;100.00
5062;BME280;2351;50.812;12.872;2023-11-19T10:35:51;97244.28;;;9.01;100.00
5062;BME280;2351;50.812;12.872;2023-11-19T10:38:24;97246.34;;;9.07;100.00
5062;BME280;2351;50.812;12.872;2023-11-19T10:40:56;97239.00;;;9.11;100.00
5062;BME280;2351;50.812;12.872;2023-11-19T10:43:28;97242.03;;;9.16;100.00
5062;BME280;2351;50.812;12.872;2023-11-19T10:46:09;97243.72;;;9.17;100.00
5062;BME280;2351;50.812;12.872;2023-11-19T10:48:42;97241.47;;;9.22;100.00
5062;BME280;2351;50.812;12.872;2023-11-19T10:51:19;97246.50;;;9.25;100.00
5062;BME280;2351;50.812;12.872;2023-11-19T10:53:53;97248.13;;;9.36;100.00
5062;BME280;2351;50.812;12.872;2023-11-19T10:56:31;97252.00;;;9.42;100.00
5062;BME280;2351;50.812;12.872;2023-11-19T10:59:02;97245.91;;;9.41;100.00
5062;BME280;2351;50.812;12.872;2023-11-19T11:01:45;97241.44;;;9.42;100.00
5062;BME280;2351;50.812;12.872;2023-11-19T11:04:22;97244.34;;;9.58;100.00
5062;BME280;2351;50.812;12.872;2023-11-19T11:06:56;97250.44;;;9.69;100.00
5062;BME280;2351;50.812;12.872;2023-11-19T11:09:30;97247.78;;;9.69;100.00
5062;BME280;2351;50.812;12.872;2023-11-19T11:12:04;97242.63;;;9.77;100.00
5062;BME280;2351;50.812;12.872;2023-11-19T11:14:38;97250.81;;;9.84;100.00
5062;BME280;2351;50.812;12.872;2023-11-19T11:17:11;97240.06;;;9.85;100.00
5062;BME280;2351;50.812;12.872;2023-11-19T11:19:44;97239.13;;;9.76;100.00
5062;BME280;2351;50.812;12.872;2023-11-19T11:22:18;97238.41;;;9.84;100.00
5062;BME280;2351;50.812;12.872;2023-11-19T11:25:17;97230.19;;;9.87;100.00
5062;BME280;2351;50.812;12.872;2023-11-19T11:28:01;97229.69;;;9.74;100.00
5062;BME280;2351;50.812;12.872;2023-11-19T11:30:46;97230.19;;;9.87;100.00
5062;BME280;2351;50.812;12.872;2023-11-19T11:33:29;97219.75;;;9.95;100.00
5062;BME280;2351;50.812;12.872;2023-11-19T11:36:12;97223.06;;;9.98;100.00
5062;BME280;2351;50.812;12.872;2023-11-19T11:38:48;97229.50;;;9.85;100.00
5062;BME280;2351;50.812;12.872;2023-11-19T11:41:21;97218.25;;;9.83;100.00
5062;BME280;2351;50.812;12.872;2023-11-19T11:43:53;97213.53;;;9.87;100.00
5062;BME280;2351;50.812;12.872;2023-11-19T11:46:54;97216.56;;;9.82;100.00
5062;BME280;2351;50.812;12.872;2023-11-19T11:49:26;97224.25;;;9.75;100.00
5062;BME280;2351;50.812;12.872;2023-11-19T11:52:01;97211.91;;;9.76;100.00
5062;BME280;2351;50.812;12.872;2023-11-19T11:54:35;97218.00;;;9.76;100.00
5062;BME280;2351;50.812;12.872;2023-11-19T11:57:08;97212.72;;;9.76;100.00
5062;BME280;2351;50.812;12.872;2023-11-19T11:59:47;97214.94;;;9.81;100.00
5062;BME280;2351;50.812;12.872;2023-11-19T12:02:20;97214.25;;;9.79;100.00
5062;BME280;2351;50.812;12.872;2023-11-19T12:04:53;97240.28;;;9.74;100.00
5062;BME280;2351;50.812;12.872;2023-11-19T12:07:25;97228.59;;;9.67;100.00
5062;BME280;2351;50.812;12.872;2023-11-19T12:10:07;97229.75;;;9.54;100.00
5062;BME280;2351;50.812;12.872;2023-11-19T12:12:41;97234.91;;;9.46;100.00
5062;BME280;2351;50.812;12.872;2023-11-19T12:15:13;97233.97;;;9.37;100.00
5062;BME280;2351;50.812;12.872;2023-11-19T12:17:49;97218.97;;;9.28;100.00
5062;BME280;2351;50.812;12.872;2023-11-19T12:20:22;97214.53;;;9.18;100.00
5062;BME280;2351;50.812;12.872;2023-11-19T12:22:54;97212.47;;;9.12;100.00
5062;BME280;2351;50.812;12.872;2023-11-19T12:25:27;97209.81;;;9.12;100.00
5062;BME280;2351;50.812;12.872;2023-11-19T12:28:00;97205.06;;;9.16;100.00
5062;BME280;2351;50.812;12.872;2023-11-19T12:33:08;97205.06;;;9.16;100.00
5062;BME280;2351;50.812;12.872;2023-11-19T12:35:41;97207.19;;;9.12;100.00
5062;BME280;2351;50.812;12.872;2023-11-19T12:38:18;97206.91;;;9.06;100.00
5062;BME280;2351;50.812;12.872;2023-11-19T12:41:04;97203.44;;;9.05;100.00
5062;BME280;2351;50.812;12.872;2023-11-19T12:43:35;97193.72;;;9.06;100.00
5062;BME280;2351;50.812;12.872;2023-11-19T12:46:17;97194.25;;;9.09;100.00
5062;BME280;2351;50.812;12.872;2023-11-19T12:48:50;97193.28;;;9.10;100.00
5062;BME280;2351;50.812;12.872;2023-11-19T12:51:22;97203.44;;;9.15;100.00
5062;BME280;2351;50.812;12.872;2023-11-19T12:54:02;97203.81;;;9.20;100.00
5062;BME280;2351;50.812;12.872;2023-11-19T12:56:36;97193.41;;;9.28;100.00
5062;BME280;2351;50.812;12.872;2023-11-19T12:59:12;97202.00;;;9.30;100.00
5062;BME280;2351;50.812;12.872;2023-11-19T13:01:53;97196.16;;;9.37;100.00
5062;BME280;2351;50.812;12.872;2023-11-19T13:04:27;97193.78;;;9.43;100.00
5062;BME280;2351;50.812;12.872;2023-11-19T13:07:01;97195.03;;;9.39;100.00
5062;BME280;2351;50.812;12.872;2023-11-19T13:09:34;97208.41;;;9.28;100.00
5062;BME280;2351;50.812;12.872;2023-11-19T13:12:14;97191.03;;;9.25;100.00
5062;BME280;2351;50.812;12.872;2023-11-19T13:14:47;97190.47;;;9.31;100.00
5062;BME280;2351;50.812;12.872;2023-11-19T13:17:19;97194.63;;;9.34;100.00
5062;BME280;2351;50.812;12.872;2023-11-19T13:19:51;97197.84;;;9.28;100.00
5062;BME280;2351;50.812;12.872;2023-11-19T13:22:23;97194.25;;;9.19;100.00
5062;BME280;2351;50.812;12.872;2023-11-19T13:24:55;97193.53;;;9.17;100.00
5062;BME280;2351;50.812;12.872;2023-11-19T13:27:28;97201.47;;;9.17;100.00
5062;BME280;2351;50.812;12.872;2023-11-19T13:30:00;97197.75;;;9.10;100.00
5062;BME280;2351;50.812;12.872;2023-11-19T13:32:31;97192.88;;;9.05;100.00
5062;BME280;2351;50.812;12.872;2023-11-19T13:35:04;97190.53;;;9.12;100.00
5062;BME280;2351;50.812;12.872;2023-11-19T13:37:36;97195.09;;;9.10;100.00
5062;BME280;2351;50.812;12.872;2023-11-19T13:40:08;97191.22;;;9.04;100.00
5062;BME280;2351;50.812;12.872;2023-11-19T13:42:45;97193.88;;;9.04;100.00